createdAt,value
2018-08-22T00:01:22.670Z,25.00
2018-08-22T00:03:54.635Z,27.20
2018-08-22T00:06:26.796Z,25.80
2018-08-22T00:08:58.730Z,23.60
2018-08-22T00:11:30.355Z,22.40
2018-08-22T00:14:02.217Z,22.20
2018-08-22T00:16:33.970Z,24.20
2018-08-22T00:19:05.786Z,30.80
2018-08-22T00:21:37.317Z,25.20
2018-08-22T00:24:09.271Z,25.60
2018-08-22T00:28:05.620Z,25.20
2018-08-22T00:30:37.547Z,26.60
2018-08-22T00:33:09.135Z,27.60
2018-08-22T00:35:41.176Z,25.60
2018-08-22T00:38:12.954Z,27.80
2018-08-22T00:40:44.584Z,25.60
2018-08-22T00:43:16.479Z,31.20
2018-08-22T00:45:49.273Z,26.20
2018-08-22T00:48:20.999Z,25.00
2018-08-22T00:50:52.859Z,25.40
2018-08-22T00:53:24.743Z,24.60
2018-08-22T00:55:56.611Z,32.60
2018-08-22T00:58:28.475Z,28.40
2018-08-22T01:01:00.084Z,29.20
2018-08-22T01:03:31.910Z,24.20
2018-08-22T01:06:04.067Z,23.60
2018-08-22T01:08:35.895Z,24.40
2018-08-22T01:11:08.098Z,24.00
2018-08-22T01:13:39.998Z,28.20
2018-08-22T01:16:12.039Z,52.20
2018-08-22T01:18:43.958Z,43.40
2018-08-22T01:21:15.657Z,41.80
2018-08-22T01:23:47.577Z,45.80
2018-08-22T01:26:19.459Z,40.20
2018-08-22T01:28:51.212Z,44.20
2018-08-22T01:31:23.004Z,39.40
2018-08-22T01:33:54.636Z,46.80
2018-08-22T01:36:26.949Z,49.20
2018-08-22T01:38:58.628Z,45.40
2018-08-22T01:41:30.779Z,47.20
2018-08-22T01:44:02.507Z,48.60
2018-08-22T01:46:34.519Z,42.40
2018-08-22T01:49:06.223Z,46.60
2018-08-22T01:51:37.946Z,46.40
2018-08-22T01:54:09.539Z,42.80
2018-08-22T01:56:41.542Z,52.00
2018-08-22T01:59:13.020Z,46.40
2018-08-22T02:01:44.935Z,49.60
2018-08-22T02:04:16.865Z,49.20
2018-08-22T02:06:51.311Z,43.20
2018-08-22T02:09:23.175Z,46.80
2018-08-22T02:11:56.641Z,42.80
2018-08-22T02:14:29.374Z,37.20
2018-08-22T02:17:01.501Z,38.20
2018-08-22T02:19:33.537Z,46.00
2018-08-22T02:22:06.075Z,50.00
2018-08-22T02:24:37.922Z,42.40
2018-08-22T02:27:09.916Z,37.40
2018-08-22T02:29:42.136Z,40.40
2018-08-22T02:32:14.452Z,61.80
2018-08-22T02:34:46.658Z,55.00
2018-08-22T02:37:19.174Z,54.60
2018-08-22T02:39:51.654Z,52.00
2018-08-22T02:42:23.584Z,52.20
2018-08-22T02:44:55.624Z,54.00
2018-08-22T02:47:27.506Z,49.20
2018-08-22T02:49:59.683Z,50.40
2018-08-22T02:52:31.695Z,54.60
2018-08-22T02:55:03.418Z,55.20
2018-08-22T02:57:35.302Z,54.20
2018-08-22T03:00:07.079Z,50.20
2018-08-22T03:02:39.026Z,49.20
2018-08-22T03:05:10.739Z,52.40
2018-08-22T03:07:42.638Z,55.60
2018-08-22T03:10:14.140Z,49.20
2018-08-22T03:12:46.181Z,52.40
2018-08-22T03:15:17.676Z,47.80
2018-08-22T03:17:50.594Z,48.60
2018-08-22T03:20:22.072Z,44.00
2018-08-22T03:22:53.776Z,85.40
2018-08-22T03:25:25.935Z,72.60
2018-08-22T03:27:57.888Z,68.00
2018-08-22T03:30:29.932Z,60.80
2018-08-22T03:33:01.885Z,63.20
2018-08-22T03:35:33.851Z,58.60
2018-08-22T03:38:05.980Z,59.80
2018-08-22T03:40:37.598Z,58.40
2018-08-22T03:43:09.697Z,56.40
2018-08-22T03:45:41.521Z,59.80
2018-08-22T03:48:13.380Z,55.60
2018-08-22T03:50:45.159Z,53.20
2018-08-22T03:53:17.537Z,54.40
2018-08-22T03:55:49.262Z,54.60
2018-08-22T03:58:21.336Z,53.80
2018-08-22T04:00:53.242Z,51.60
2018-08-22T04:03:24.947Z,55.80
2018-08-22T04:05:56.791Z,49.40
2018-08-22T04:08:28.659Z,49.40
2018-08-22T04:11:00.319Z,47.20
2018-08-22T04:13:32.196Z,49.80
2018-08-22T04:16:04.134Z,51.60
2018-08-22T04:18:35.888Z,51.60
2018-08-22T04:21:07.666Z,52.00
2018-08-22T04:23:39.565Z,50.40
2018-08-22T04:26:11.800Z,49.00
2018-08-22T04:28:43.955Z,38.20
2018-08-22T04:31:16.509Z,35.60
2018-08-22T04:33:48.603Z,40.00
2018-08-22T04:36:22.444Z,40.20
2018-08-22T04:38:55.069Z,48.20
2018-08-22T04:41:26.829Z,47.60
2018-08-22T04:43:59.311Z,41.60
2018-08-22T04:46:31.467Z,41.20
2018-08-22T04:49:03.591Z,33.60
2018-08-22T04:51:35.781Z,28.60
2018-08-22T04:54:07.713Z,35.00
2018-08-22T04:56:39.969Z,41.40
2018-08-22T04:59:11.946Z,46.00
2018-08-22T05:01:43.633Z,46.00
2018-08-22T05:04:16.715Z,50.40
2018-08-22T05:06:48.884Z,47.00
2018-08-22T05:09:23.270Z,53.60
2018-08-22T05:11:57.570Z,49.60
2018-08-22T05:14:29.950Z,56.20
2018-08-22T05:17:01.674Z,56.40
2018-08-22T05:19:33.440Z,52.60
2018-08-22T05:22:05.108Z,52.80
2018-08-22T05:24:37.203Z,50.80
2018-08-22T05:27:08.812Z,46.20
2018-08-22T05:29:40.898Z,43.00
2018-08-22T05:32:12.584Z,40.40
2018-08-22T05:34:49.090Z,44.40
2018-08-22T05:37:20.863Z,35.40
2018-08-22T05:39:52.687Z,40.00
2018-08-22T05:49:25.376Z,38.60
2018-08-22T05:51:56.897Z,43.00
2018-08-22T05:54:28.544Z,36.60
2018-08-22T05:57:01.022Z,37.40
2018-08-22T05:59:33.005Z,45.60
2018-08-22T06:02:04.609Z,40.00
2018-08-22T06:04:36.311Z,40.60
2018-08-22T06:07:08.513Z,37.60
2018-08-22T06:09:41.434Z,38.00
2018-08-22T06:12:13.186Z,36.40
2018-08-22T06:14:45.315Z,40.60
2018-08-22T06:17:17.845Z,38.80
2018-08-22T06:19:50.139Z,42.00
2018-08-22T06:22:22.151Z,37.40
2018-08-22T06:24:54.289Z,39.40
2018-08-22T06:27:25.881Z,39.00
2018-08-22T06:29:57.286Z,37.60
2018-08-22T06:32:29.309Z,38.40
2018-08-22T06:35:01.505Z,36.00
2018-08-22T06:37:32.812Z,35.80
2018-08-22T06:40:04.998Z,35.40
2018-08-22T06:42:36.288Z,39.40
2018-08-22T06:45:08.714Z,39.80
2018-08-22T06:47:40.353Z,37.00
2018-08-22T06:50:12.413Z,32.60
2018-08-22T06:52:44.026Z,38.00
2018-08-22T06:55:15.575Z,36.20
2018-08-22T06:57:46.922Z,36.80
2018-08-22T07:00:18.459Z,41.80
2018-08-22T07:02:49.936Z,40.60
2018-08-22T07:05:21.565Z,35.40
2018-08-22T07:07:52.915Z,33.20
2018-08-22T07:10:24.558Z,37.40
2018-08-22T07:12:56.000Z,41.60
2018-08-22T07:15:27.586Z,41.40
2018-08-22T07:17:59.054Z,37.80
2018-08-22T07:20:30.518Z,38.80
2018-08-22T07:23:02.107Z,35.60
2018-08-22T07:25:33.597Z,35.20
2018-08-22T07:28:05.142Z,34.00
2018-08-22T07:30:36.778Z,36.40
2018-08-22T07:33:08.275Z,37.40
2018-08-22T07:35:40.116Z,35.80
2018-08-22T07:38:11.730Z,37.00
2018-08-22T07:40:43.194Z,36.40
2018-08-22T07:43:14.632Z,37.00
2018-08-22T07:45:45.964Z,42.40
2018-08-22T07:48:17.512Z,36.40
2018-08-22T07:50:50.381Z,29.40
2018-08-22T07:53:21.870Z,35.40
2018-08-22T07:55:53.672Z,39.00
2018-08-22T07:58:25.151Z,33.40
2018-08-22T08:00:56.836Z,36.80
2018-08-22T08:03:28.506Z,32.80
2018-08-22T08:05:59.733Z,32.60
2018-08-22T08:08:31.676Z,38.40
2018-08-22T08:11:03.426Z,32.20
2018-08-22T08:13:34.821Z,40.20
2018-08-22T08:16:06.448Z,37.20
2018-08-22T08:18:38.087Z,41.40
2018-08-22T08:21:09.782Z,35.60
2018-08-22T08:23:41.589Z,38.60
2018-08-22T08:26:13.350Z,34.60
2018-08-22T08:28:45.109Z,41.00
2018-08-22T08:31:16.806Z,40.60
2018-08-22T08:33:48.496Z,36.60
2018-08-22T08:36:20.317Z,38.80
2018-08-22T08:38:51.761Z,36.20
2018-08-22T08:41:23.585Z,40.60
2018-08-22T08:43:55.076Z,37.00
2018-08-22T08:46:26.525Z,41.80
2018-08-22T08:48:57.921Z,39.60
2018-08-22T08:51:29.933Z,36.80
2018-08-22T08:54:01.500Z,38.00
2018-08-22T08:56:33.178Z,36.60
2018-08-22T08:59:04.879Z,40.00
2018-08-22T09:01:36.669Z,39.80
2018-08-22T09:04:08.043Z,42.40
2018-08-22T09:06:39.888Z,38.60
2018-08-22T09:09:12.077Z,39.60
2018-08-22T09:11:50.454Z,37.00
2018-08-22T09:14:22.313Z,39.80
2018-08-22T09:16:53.825Z,40.00
2018-08-22T09:19:25.407Z,38.40
2018-08-22T09:21:56.795Z,39.40
2018-08-22T09:24:28.114Z,39.80
2018-08-22T09:26:59.724Z,39.60
2018-08-22T09:29:31.231Z,41.00
2018-08-22T09:32:03.094Z,42.00
2018-08-22T09:34:34.488Z,39.60
2018-08-22T09:37:06.209Z,39.00
2018-08-22T09:39:37.643Z,38.00
2018-08-22T09:42:09.092Z,37.60
2018-08-22T09:44:40.738Z,44.40
2018-08-22T09:47:12.164Z,38.00
2018-08-22T09:49:43.697Z,43.60
2018-08-22T09:52:16.311Z,44.80
2018-08-22T09:54:57.495Z,40.00
2018-08-22T09:57:29.968Z,42.20
2018-08-22T10:00:01.681Z,42.20
2018-08-22T10:02:33.039Z,44.00
2018-08-22T10:05:04.707Z,44.40
2018-08-22T10:07:36.407Z,43.00
2018-08-22T10:10:08.013Z,43.20
2018-08-22T10:12:39.485Z,46.60
2018-08-22T10:15:11.147Z,40.00
2018-08-22T10:17:42.556Z,45.60
2018-08-22T10:20:14.240Z,48.20
2018-08-22T10:22:45.887Z,44.40
2018-08-22T10:25:17.377Z,44.00
2018-08-22T10:27:49.014Z,43.60
2018-08-22T10:30:20.432Z,40.00
2018-08-22T10:32:52.446Z,46.40
2018-08-22T10:35:23.959Z,47.00
2018-08-22T10:37:55.593Z,45.80
2018-08-22T10:40:27.222Z,42.20
2018-08-22T10:42:58.776Z,47.40
2018-08-22T10:45:30.355Z,48.20
2018-08-22T10:48:01.874Z,48.20
2018-08-22T10:50:33.528Z,50.60
2018-08-22T10:53:05.272Z,46.80
2018-08-22T10:55:36.844Z,46.20
2018-08-22T10:58:08.459Z,48.80
2018-08-22T11:00:39.727Z,44.80
2018-08-22T11:03:11.333Z,44.40
2018-08-22T11:05:43.039Z,50.40
2018-08-22T11:08:14.691Z,49.60
2018-08-22T11:10:46.385Z,51.20
2018-08-22T11:13:18.401Z,48.80
2018-08-22T11:15:50.119Z,51.20
2018-08-22T11:18:22.186Z,50.80
2018-08-22T11:20:51.974Z,50.80
2018-08-22T11:23:34.530Z,55.20
2018-08-22T11:26:15.814Z,50.00
2018-08-22T11:28:56.823Z,48.80
2018-08-22T11:31:37.799Z,56.60
2018-08-22T11:34:19.255Z,53.60
2018-08-22T11:37:13.123Z,59.00
2018-08-22T11:39:47.544Z,57.60
2018-08-22T11:42:19.041Z,55.40
2018-08-22T11:44:50.679Z,53.80
2018-08-22T11:47:22.315Z,55.40
2018-08-22T11:49:53.797Z,57.20
2018-08-22T11:52:25.370Z,55.20
2018-08-22T11:54:57.078Z,58.40
2018-08-22T11:57:28.456Z,52.40
2018-08-22T11:59:59.934Z,60.00
2018-08-22T12:02:31.617Z,53.80
2018-08-22T12:05:03.441Z,58.20
2018-08-22T12:07:35.122Z,59.40
2018-08-22T12:10:06.940Z,58.00
2018-08-22T12:12:38.870Z,58.60
2018-08-22T12:15:10.692Z,59.80
2018-08-22T12:17:42.437Z,57.80
2018-08-22T12:20:14.192Z,57.60
2018-08-22T12:22:46.233Z,56.40
2018-08-22T12:25:19.152Z,59.80
2018-08-22T12:27:50.589Z,57.80
2018-08-22T12:30:22.204Z,55.80
2018-08-22T12:32:53.792Z,59.60
2018-08-22T12:35:25.580Z,63.40
2018-08-22T12:37:56.813Z,61.00
2018-08-22T12:40:28.521Z,59.00
2018-08-22T12:43:00.124Z,57.20
2018-08-22T12:45:31.784Z,60.20
2018-08-22T12:48:03.687Z,59.80
2018-08-22T12:50:35.107Z,58.80
2018-08-22T12:53:06.784Z,62.20
2018-08-22T12:55:38.446Z,59.40
2018-08-22T12:58:10.007Z,59.60
2018-08-22T13:00:41.517Z,61.80
2018-08-22T13:03:13.184Z,66.40
2018-08-22T13:05:45.186Z,59.40
2018-08-22T13:08:16.491Z,64.60
2018-08-22T13:10:48.188Z,64.40
2018-08-22T13:13:19.713Z,65.00
2018-08-22T13:15:51.413Z,59.40
2018-08-22T13:18:23.133Z,63.00
2018-08-22T13:20:54.743Z,59.40
2018-08-22T13:23:26.162Z,60.20
2018-08-22T13:25:57.895Z,64.40
2018-08-22T13:28:29.450Z,64.60
2018-08-22T13:31:01.260Z,65.20
2018-08-22T13:33:32.620Z,66.80
2018-08-22T13:36:03.944Z,63.80
2018-08-22T13:38:35.539Z,64.60
2018-08-22T13:41:07.338Z,66.80
2018-08-22T13:43:39.084Z,65.60
2018-08-22T13:46:10.702Z,64.40
2018-08-22T13:48:42.152Z,59.40
2018-08-22T13:51:13.802Z,64.20
2018-08-22T13:53:45.421Z,63.80
2018-08-22T13:56:16.934Z,64.00
2018-08-22T13:58:48.490Z,63.80
2018-08-22T14:01:20.290Z,63.80
2018-08-22T14:03:52.042Z,64.40
2018-08-22T14:06:23.719Z,63.20
2018-08-22T14:08:55.324Z,63.80
2018-08-22T14:11:27.084Z,64.60
2018-08-22T14:13:58.644Z,65.80
2018-08-22T14:16:30.295Z,64.40
2018-08-22T14:19:01.807Z,63.80
2018-08-22T14:21:32.968Z,63.60
2018-08-22T14:24:04.446Z,68.20
2018-08-22T14:26:35.939Z,68.00
2018-08-22T14:29:07.661Z,63.80
2018-08-22T14:31:39.411Z,62.00
2018-08-22T14:34:11.505Z,62.60
2018-08-22T14:36:43.134Z,63.40
2018-08-22T14:39:14.843Z,64.80
2018-08-22T14:41:46.486Z,64.00
2018-08-22T14:44:17.750Z,63.20
2018-08-22T14:46:49.385Z,63.00
2018-08-22T14:49:21.037Z,60.40
2018-08-22T14:51:52.448Z,66.60
2018-08-22T14:54:24.201Z,65.40
2018-08-22T14:56:55.763Z,61.80
2018-08-22T14:59:27.702Z,64.00
2018-08-22T15:01:59.369Z,63.60
2018-08-22T15:04:31.037Z,58.40
2018-08-22T15:07:03.300Z,65.20
2018-08-22T15:09:34.786Z,62.40
2018-08-22T15:12:06.610Z,62.60
2018-08-22T15:14:38.341Z,63.80
2018-08-22T15:17:10.410Z,60.00
2018-08-22T15:19:41.845Z,60.20
2018-08-22T15:22:13.600Z,60.00
2018-08-22T15:24:47.023Z,60.20
2018-08-22T15:27:20.599Z,58.60
2018-08-22T15:29:52.361Z,58.20
2018-08-22T15:32:24.569Z,64.60
2018-08-22T15:34:57.442Z,62.00
2018-08-22T15:37:29.207Z,62.60
2018-08-22T15:40:00.680Z,65.80
2018-08-22T15:42:32.585Z,64.40
2018-08-22T15:45:04.444Z,61.60
2018-08-22T15:47:36.040Z,61.40
2018-08-22T15:50:07.774Z,62.80
2018-08-22T15:52:39.760Z,64.20
2018-08-22T15:55:18.556Z,59.60
2018-08-22T15:58:02.263Z,62.80
2018-08-22T16:00:52.511Z,60.60
2018-08-22T16:03:25.343Z,59.40
2018-08-22T16:05:57.461Z,55.20
2018-08-22T16:08:29.845Z,63.00
2018-08-22T16:11:05.873Z,57.80
2018-08-22T16:13:38.349Z,63.20
2018-08-22T16:16:09.798Z,58.80
2018-08-22T16:18:41.592Z,63.00
2018-08-22T16:21:13.089Z,59.00
2018-08-22T16:23:44.699Z,60.20
2018-08-22T16:26:16.358Z,61.00
2018-08-22T16:28:55.176Z,58.80
2018-08-22T16:31:35.090Z,59.40
2018-08-22T16:34:06.751Z,55.20
2018-08-22T16:36:39.909Z,59.60
2018-08-22T16:39:11.819Z,58.00
2018-08-22T16:41:43.527Z,61.60
2018-08-22T16:44:15.489Z,58.00
2018-08-22T16:46:47.053Z,62.00
2018-08-22T16:49:19.043Z,62.80
2018-08-22T16:51:51.114Z,59.80
2018-08-22T16:54:22.558Z,60.00
2018-08-22T16:56:54.051Z,60.20
2018-08-22T16:59:25.715Z,63.00
2018-08-22T17:01:57.387Z,61.60
2018-08-22T17:04:29.220Z,58.20
2018-08-22T17:07:05.430Z,63.20
2018-08-22T17:09:37.287Z,66.80
2018-08-22T17:12:08.845Z,63.20
2018-08-22T17:14:40.494Z,63.80
2018-08-22T17:17:12.011Z,62.00
2018-08-22T17:19:44.033Z,61.80
2018-08-22T17:22:15.636Z,63.60
2018-08-22T17:24:47.971Z,58.20
2018-08-22T17:27:19.612Z,59.60
2018-08-22T17:29:50.885Z,59.40
2018-08-22T17:32:22.538Z,60.00
2018-08-22T17:34:54.257Z,63.20
2018-08-22T17:37:25.746Z,60.40
2018-08-22T17:39:57.349Z,60.80
2018-08-22T17:42:29.100Z,61.40
2018-08-22T17:45:00.632Z,58.80
2018-08-22T17:47:32.249Z,59.00
2018-08-22T17:50:10.936Z,57.40
2018-08-22T17:52:42.359Z,57.80
2018-08-22T17:55:14.113Z,59.00
2018-08-22T17:57:45.603Z,58.40
2018-08-22T18:00:17.345Z,52.80
2018-08-22T18:02:49.778Z,58.20
2018-08-22T18:05:21.458Z,53.00
2018-08-22T18:07:52.906Z,53.80
2018-08-22T18:10:24.581Z,53.80
2018-08-22T18:12:56.837Z,50.20
2018-08-22T18:15:28.243Z,45.40
2018-08-22T18:17:59.948Z,47.00
2018-08-22T18:20:31.930Z,45.40
2018-08-22T18:23:03.031Z,48.80
2018-08-22T18:25:34.864Z,46.00
2018-08-22T18:28:07.671Z,43.60
2018-08-22T18:30:39.952Z,40.60
2018-08-22T18:33:11.357Z,42.60
2018-08-22T18:35:45.771Z,43.00
2018-08-22T18:38:17.496Z,38.80
2018-08-22T18:41:20.514Z,43.00
2018-08-22T18:43:52.042Z,39.40
2018-08-22T18:46:24.082Z,40.60
2018-08-22T18:48:55.749Z,41.20
2018-08-22T18:51:28.068Z,31.20
2018-08-22T18:53:59.941Z,37.60
2018-08-22T18:56:31.589Z,33.80
2018-08-22T18:59:11.592Z,38.60
2018-08-22T19:01:43.290Z,30.60
2018-08-22T19:04:15.029Z,32.60
2018-08-22T19:06:46.855Z,32.40
2018-08-22T19:09:18.540Z,33.40
2018-08-22T19:11:50.747Z,33.80
2018-08-22T19:14:31.579Z,37.20
2018-08-22T19:17:03.324Z,28.00
2018-08-22T19:19:39.830Z,35.00
2018-08-22T19:22:11.574Z,32.40
2018-08-22T19:24:48.418Z,30.80
2018-08-22T19:27:20.741Z,33.20
2018-08-22T19:29:52.419Z,32.40
2018-08-22T19:32:23.862Z,35.00
2018-08-22T19:34:58.153Z,36.40
2018-08-22T19:37:30.260Z,36.40
2018-08-22T19:40:06.952Z,33.00
2018-08-22T19:42:40.805Z,36.60
2018-08-22T19:45:12.597Z,28.40
2018-08-22T19:47:43.979Z,27.20
2018-08-22T19:50:15.471Z,33.60
2018-08-22T19:52:47.182Z,28.60
2018-08-22T19:55:18.791Z,32.00
2018-08-22T19:57:50.479Z,26.80
2018-08-22T20:00:21.682Z,27.80
2018-08-22T20:02:53.391Z,28.80
2018-08-22T20:05:24.949Z,31.60
2018-08-22T20:07:56.678Z,29.40
2018-08-22T20:10:29.037Z,28.60
2018-08-22T20:13:00.742Z,28.00
2018-08-22T20:15:32.172Z,28.40
2018-08-22T20:18:03.937Z,32.60
2018-08-22T20:20:35.520Z,26.60
2018-08-22T20:23:06.758Z,25.80
2018-08-22T20:25:38.874Z,24.40
2018-08-22T20:28:10.541Z,27.20
2018-08-22T20:30:42.022Z,30.00
2018-08-22T20:33:13.601Z,28.80
2018-08-22T20:35:45.954Z,23.20
2018-08-22T20:38:17.742Z,25.60
2018-08-22T20:40:51.465Z,24.40
2018-08-22T20:43:27.595Z,28.00
2018-08-22T20:45:59.276Z,24.60
2018-08-22T20:48:30.915Z,23.00
2018-08-22T20:51:02.569Z,22.60
2018-08-22T20:53:33.760Z,22.20
2018-08-22T20:56:05.295Z,23.60
2018-08-22T20:58:36.884Z,20.40
2018-08-22T21:01:08.577Z,24.80
2018-08-22T21:10:42.224Z,19.00
2018-08-22T21:13:30.607Z,23.60
2018-08-22T21:16:02.073Z,19.60
2018-08-22T21:18:33.814Z,25.80
2018-08-22T21:21:10.804Z,20.20
2018-08-22T21:23:43.226Z,25.00
2018-08-22T21:26:21.965Z,26.60
2018-08-22T21:28:53.606Z,21.80
2018-08-22T21:31:25.145Z,23.80
2018-08-22T21:33:57.145Z,24.40
2018-08-22T21:36:28.906Z,25.80
2018-08-22T21:39:00.432Z,24.20
2018-08-22T21:41:31.883Z,26.60
2018-08-22T21:44:03.364Z,25.60
2018-08-22T21:46:34.843Z,22.40
2018-08-22T21:49:11.161Z,22.80
2018-08-22T21:51:43.531Z,26.80
2018-08-22T21:54:15.112Z,26.40
2018-08-22T21:56:47.422Z,24.80
2018-08-22T21:59:19.090Z,26.20
2018-08-22T22:01:55.330Z,23.80
2018-08-22T22:04:31.262Z,31.40
2018-08-22T22:07:03.272Z,27.40
2018-08-22T22:09:35.286Z,28.40
2018-08-22T22:12:11.233Z,26.80
2018-08-22T22:14:44.423Z,24.40
2018-08-22T22:17:16.635Z,29.40
2018-08-22T22:19:48.698Z,28.80
2018-08-22T22:22:20.609Z,26.00
2018-08-22T22:24:56.380Z,29.60
2018-08-22T22:27:28.989Z,28.20
2018-08-22T22:30:05.346Z,26.40
2018-08-22T22:32:38.203Z,29.40
2018-08-22T22:35:09.675Z,30.20
2018-08-22T22:37:41.155Z,26.00
2018-08-22T22:40:12.795Z,27.00
2018-08-22T22:42:44.459Z,31.40
2018-08-22T22:45:16.715Z,25.40
2018-08-22T22:47:48.117Z,27.80
2018-08-22T22:50:19.629Z,26.40
2018-08-22T22:52:51.286Z,28.20
2018-08-22T22:55:22.795Z,31.00
2018-08-22T22:57:54.459Z,24.60
2018-08-22T23:00:26.406Z,25.20
2018-08-22T23:03:02.569Z,24.40
2018-08-22T23:05:33.855Z,26.20
2018-08-22T23:08:05.553Z,24.20
2018-08-22T23:10:37.137Z,24.20
2018-08-22T23:13:08.741Z,29.00
2018-08-22T23:15:39.913Z,25.80
2018-08-22T23:18:11.576Z,26.20
2018-08-22T23:20:43.987Z,24.60
2018-08-22T23:23:31.320Z,27.80
2018-08-22T23:26:08.950Z,24.60
2018-08-22T23:28:41.041Z,24.60
2018-08-22T23:31:12.886Z,26.40
2018-08-22T23:33:44.784Z,27.00
2018-08-22T23:36:16.538Z,29.80
2018-08-22T23:38:48.367Z,28.60
2018-08-22T23:41:20.226Z,28.20
2018-08-22T23:43:53.252Z,28.20
2018-08-22T23:46:24.782Z,23.60
2018-08-22T23:48:58.645Z,26.40
2018-08-22T23:51:30.278Z,25.00
2018-08-22T23:54:02.526Z,26.40
2018-08-22T23:56:34.253Z,27.60
2018-08-22T23:59:06.654Z,24.20
